ROMMA est une association bénévole à but non lucratif. Votre soutien est indispensable : ADHERER à ROMMA ou FAIRE un DON

Engins - (38, Isère)

Vercors (906 m)   Longitude: 05° 37' E   Latitude: 45° 11' N Station partenaire n°139
 

Détail journalier du     <<     >>

Température Precipitation Humidité Vent Dir Rafale Dir. rafale Ensol.
Heure (°C) (mm) (%) (km/h) (km/h) (min)
01:00 8.60907SO21SO0
02:00 8.30908SO24SSO0
03:00 8.40908OSO23SSE0
04:00 8.30916OSO16SO0
05:00 8.10924SSO11SO0
06:00 8.10916SO11SSO0
07:00 8.00925OSO13S0
08:00 7.90925SO11OSO0
09:00 8.20924SSO11S5
10:00 8.90885S13SE45
11:00 10.10885S13S0
12:00 13.70795ENE19NE60
13:00 13.70805ENE23ENE50
14:00 12.90822N11ENE15
15:00 13.30802ENE10NNE10
16:00 12.70842NNE8N5
17:00 12.30851ENE5ENE0
18:00 11.90862NNO6NNO0
19:00 11.508903NNO0
20:00 11.10911NNO5NNO0
21:00 11.20893OSO8SSO0
22:00 10.30894OSO10O0
23:00 9.30914O15SE0
minuit 8.90916SSO15OSO0

Graphique du 25-10-2019

 

Serveur OMMA